Time;durP1;ratioP1;P1;durP2;ratioP2;P2;SDS_P1;SDS_P2;PMS_P1;PMS_P2;Temp;Humidity;BMP_temperature;BMP_pressure;BME280_temperature;BME280_humidity;BME280_pressure;Samples;Min_cycle;Max_cycle;Signal;HPM_P1;HPM_P2
2024/03/09 00:00:40;;;;;;;41.30;20.05;;;103.10;2227.20;;;;;;5072253;28;20040;-75
2024/03/09 00:03:13;;;;;;;38.63;18.67;;;103.20;2227.20;;;;;;5063479;28;20037;-74
2024/03/09 00:05:39;;;;;;;42.75;21.00;;;103.10;2227.20;;;;;;5067698;28;20036;-74
2024/03/09 00:08:08;;;;;;;43.10;18.63;;;103.00;2227.20;;;;;;5063691;28;20056;-75
2024/03/09 00:10:34;;;;;;;38.88;18.45;;;103.00;2227.20;;;;;;5078071;28;20029;-74
2024/03/09 00:13:00;;;;;;;;;;;103.10;2227.20;;;;;;5079381;28;20028;-76
2024/03/09 00:15:28;;;;;;;33.87;18.10;;;103.00;2227.20;;;;;;5070900;28;20285;-75
2024/03/09 00:17:58;;;;;;;37.92;16.67;;;103.20;2227.20;;;;;;5065184;28;20028;-75
2024/03/09 00:20:27;;;;;;;41.38;18.67;;;103.20;2227.20;;;;;;5069739;28;20077;-74
2024/03/09 00:22:58;;;;;;;37.08;19.38;;;103.20;2227.20;;;;;;5067099;28;20028;-75
2024/03/09 00:25:24;;;;;;;41.30;19.00;;;103.20;2227.20;;;;;;5062521;28;20063;-75
2024/03/09 00:27:54;;;;;;;40.03;18.52;;;103.20;2227.20;;;;;;5084412;28;20124;-75
2024/03/09 00:30:24;;;;;;;40.47;18.40;;;103.10;2227.20;;;;;;5060960;28;20048;-74
2024/03/09 00:32:55;;;;;;;34.80;18.17;;;103.10;2227.20;;;;;;5078099;28;20028;-75
2024/03/09 00:35:24;;;;;;;40.72;19.73;;;103.00;2227.20;;;;;;5071775;28;20036;-76
2024/03/09 00:37:51;;;;;;;37.22;19.77;;;102.90;2227.20;;;;;;5081906;28;20040;-74
2024/03/09 00:40:17;;;;;;;44.90;20.70;;;103.00;2227.20;;;;;;5072956;28;20148;-75
2024/03/09 00:42:45;;;;;;;35.53;17.88;;;102.90;2227.20;;;;;;5073512;28;20060;-79
2024/03/09 00:45:15;;;;;;;36.70;19.55;;;102.90;2227.20;;;;;;5061125;28;20039;-75
2024/03/09 00:47:45;;;;;;;36.53;18.17;;;102.90;2227.20;;;;;;5074606;28;20043;-75
2024/03/09 00:50:12;;;;;;;35.70;17.52;;;102.90;2227.20;;;;;;5065337;28;20034;-77
2024/03/09 00:52:38;;;;;;;37.35;18.55;;;102.80;2227.20;;;;;;5071285;28;20455;-75
2024/03/09 00:55:10;;;;;;;;;;;102.80;2227.20;;;;;;5071926;28;20104;-75
2024/03/09 00:57:44;;;;;;;41.75;18.13;;;102.80;2227.20;;;;;;5075349;28;20026;-75
2024/03/09 01:00:11;;;;;;;37.72;18.17;;;102.80;2227.20;;;;;;5068469;28;20473;-75
2024/03/09 01:02:43;;;;;;;35.30;17.63;;;102.70;2227.20;;;;;;5070633;28;20061;-75
2024/03/09 01:05:10;;;;;;;37.35;18.08;;;102.80;2227.20;;;;;;5063863;28;20573;-74
2024/03/09 01:07:37;;;;;;;42.75;18.83;;;102.80;2227.20;;;;;;5060071;28;20074;-75
2024/03/09 01:10:06;;;;;;;36.78;18.35;;;102.70;2227.20;;;;;;5090850;28;20037;-75
2024/03/09 01:12:33;;;;;;;41.10;19.67;;;102.70;2227.20;;;;;;5072273;28;20359;-75
2024/03/09 01:15:00;;;;;;;37.15;17.73;;;102.60;2227.20;;;;;;5073394;28;20028;-75
2024/03/09 01:17:26;;;;;;;42.65;18.60;;;102.70;2227.20;;;;;;5089429;28;20027;-76
2024/03/09 01:19:52;;;;;;;;;;;102.60;2227.20;;;;;;5067481;28;20029;-75
2024/03/09 01:22:19;;;;;;;40.95;18.92;;;102.50;2227.20;;;;;;5070313;28;20258;-74
2024/03/09 01:24:46;;;;;;;35.92;17.20;;;102.50;2227.20;;;;;;5066207;28;20090;-75
2024/03/09 01:27:12;;;;;;;42.90;17.65;;;102.50;2227.20;;;;;;5064975;28;20091;-75
2024/03/09 01:29:44;;;;;;;40.30;18.15;;;102.50;2227.20;;;;;;5064181;28;20049;-74
2024/03/09 01:32:11;;;;;;;43.28;18.48;;;102.40;2227.20;;;;;;5074789;28;20020;-75
2024/03/09 01:34:37;;;;;;;38.33;18.42;;;102.50;2227.20;;;;;;5067260;28;20037;-75
2024/03/09 01:37:05;;;;;;;;;;;102.40;2227.20;;;;;;5074816;28;20021;-75
2024/03/09 01:39:31;;;;;;;33.92;16.20;;;102.40;2227.20;;;;;;5074791;28;19963;-74
2024/03/09 01:41:57;;;;;;;36.65;17.40;;;102.40;2227.20;;;;;;5075975;28;20036;-75
2024/03/09 01:44:23;;;;;;;;;;;102.40;2227.20;;;;;;5069838;28;20028;-74
2024/03/09 01:46:50;;;;;;;35.78;15.95;;;102.40;2227.20;;;;;;5072486;28;19984;-75
2024/03/09 01:49:18;;;;;;;41.20;18.90;;;102.40;2227.20;;;;;;5073881;28;20036;-74
2024/03/09 01:51:47;;;;;;;37.90;18.05;;;102.40;2227.20;;;;;;5076171;28;20036;-74
2024/03/09 01:54:19;;;;;;;35.40;17.40;;;102.50;2227.20;;;;;;5075221;28;20032;-74
2024/03/09 01:56:49;;;;;;;37.63;18.98;;;102.60;2227.20;;;;;;5074807;28;20058;-74
2024/03/09 01:59:17;;;;;;;36.95;17.02;;;103.10;2227.20;;;;;;5074739;28;20040;-74
2024/03/09 02:01:45;;;;;;;39.55;18.98;;;102.60;2227.20;;;;;;5076324;28;20012;-75
2024/03/09 02:04:11;;;;;;;41.20;18.17;;;102.70;2227.20;;;;;;5075880;28;20116;-75
2024/03/09 02:06:37;;;;;;;34.15;16.70;;;102.50;2227.20;;;;;;5074785;28;20027;-76
2024/03/09 02:09:09;;;;;;;38.38;16.98;;;102.50;2227.20;;;;;;5075958;28;20025;-76
2024/03/09 02:11:42;;;;;;;36.22;17.42;;;102.40;2227.20;;;;;;5075995;28;20048;-75
2024/03/09 02:14:08;;;;;;;37.15;18.02;;;102.40;2227.20;;;;;;5074623;28;20020;-75
2024/03/09 02:16:34;;;;;;;33.53;16.83;;;102.70;2227.20;;;;;;5075728;28;20029;-75
2024/03/09 02:19:00;;;;;;;;;;;77.70;2227.20;;;;;;5076138;28;20021;-74
2024/03/09 02:21:27;;;;;;;39.33;16.02;;;77.70;2227.20;;;;;;5091407;28;20048;-74
2024/03/09 02:24:02;;;;;;;30.92;16.00;;;77.70;2227.20;;;;;;5075564;28;20032;-74
2024/03/09 02:26:30;;;;;;;38.00;16.73;;;77.70;2227.20;;;;;;5075804;28;20021;-74
2024/03/09 02:28:57;;;;;;;38.05;18.02;;;77.60;2227.20;;;;;;5075560;28;20473;-76
2024/03/09 02:31:24;;;;;;;39.42;17.10;;;77.60;2227.20;;;;;;5075296;28;20067;-75
2024/03/09 02:33:52;;;;;;;36.25;17.05;;;77.60;2227.20;;;;;;5073827;28;20500;-75
2024/03/09 02:36:25;;;;;;;36.55;16.42;;;77.60;2227.20;;;;;;5075241;28;20044;-75
2024/03/09 02:38:52;;;;;;;35.53;17.17;;;77.60;2227.20;;;;;;5075596;28;20028;-75
2024/03/09 02:41:19;;;;;;;32.78;16.75;;;77.60;2227.20;;;;;;5074314;28;20071;-76
2024/03/09 02:43:46;;;;;;;34.47;17.40;;;77.50;2227.20;;;;;;5074273;28;20135;-75
2024/03/09 02:46:15;;;;;;;41.22;17.50;;;77.60;2227.20;;;;;;5075117;28;20454;-76
2024/03/09 02:48:43;;;;;;;34.45;16.92;;;77.40;2227.20;;;;;;5073969;28;20393;-75
2024/03/09 02:51:10;;;;;;;41.63;18.63;;;77.50;2227.20;;;;;;5073727;28;20020;-74
2024/03/09 02:53:39;;;;;;;35.30;17.33;;;77.50;2227.20;;;;;;5075276;28;20027;-74
2024/03/09 02:56:05;;;;;;;41.20;18.40;;;77.70;2227.20;;;;;;5074994;28;20012;-74
2024/03/09 02:58:32;;;;;;;41.58;17.50;;;102.40;2227.20;;;;;;5074979;28;20024;-75
2024/03/09 03:00:58;;;;;;;35.33;16.75;;;102.40;2227.20;;;;;;5072783;28;20036;-75
2024/03/09 03:06:08;;;;;;;35.67;17.15;;;102.40;2227.20;;;;;;5075218;28;19911;-75
2024/03/09 03:08:33;;;;;;;;;;;102.40;2227.20;;;;;;5074063;28;20020;-74
2024/03/09 03:11:00;;;;;;;36.88;17.85;;;77.70;2227.20;;;;;;5074944;28;19911;-75
2024/03/09 03:13:28;;;;;;;35.25;16.58;;;77.70;2227.20;;;;;;5073373;28;20032;-74
2024/03/09 03:15:54;;;;;;;40.63;16.98;;;102.40;2227.20;;;;;;5074681;28;20016;-75
2024/03/09 03:18:22;;;;;;;;;;;102.50;2227.20;;;;;;5074928;28;20024;-74
2024/03/09 03:20:48;;;;;;;36.92;18.55;;;102.50;2227.20;;;;;;5074499;28;19904;-75
2024/03/09 03:23:14;;;;;;;43.97;18.33;;;102.50;2227.20;;;;;;5073345;28;20041;-74
2024/03/09 03:25:40;;;;;;;;;;;102.40;2227.20;;;;;;5075165;28;20017;-75
2024/03/09 03:28:05;;;;;;;42.72;18.27;;;102.40;2227.20;;;;;;5074386;28;20337;-75
2024/03/09 03:30:33;;;;;;;;;;;102.40;2227.20;;;;;;5074586;28;20441;-75
2024/03/09 03:33:00;;;;;;;38.80;16.90;;;102.40;2227.20;;;;;;5073176;28;19904;-75
2024/03/09 03:35:26;;;;;;;36.70;17.30;;;102.50;2227.20;;;;;;5074253;28;20055;-76
2024/03/09 03:37:54;;;;;;;38.38;17.92;;;102.50;2227.20;;;;;;5072976;28;20111;-76
2024/03/09 03:40:22;;;;;;;36.35;17.33;;;102.50;2227.20;;;;;;5073058;28;20082;-76
2024/03/09 03:42:49;;;;;;;36.25;17.13;;;102.60;2227.20;;;;;;5074215;28;20024;-76
2024/03/09 03:45:15;;;;;;;42.95;18.70;;;102.60;2227.20;;;;;;5072944;28;20028;-75
2024/03/09 03:47:41;;;;;;;;;;;102.60;2227.20;;;;;;5074566;28;20028;-75
2024/03/09 03:50:10;;;;;;;33.85;16.02;;;102.50;2227.20;;;;;;5074473;28;19910;-75
2024/03/09 03:52:39;;;;;;;32.92;15.45;;;102.50;2227.20;;;;;;5072665;28;20438;-75
2024/03/09 03:55:11;;;;;;;39.33;17.58;;;102.50;2227.20;;;;;;5072713;28;20449;-75
2024/03/09 03:57:42;;;;;;;32.22;16.23;;;102.50;2227.20;;;;;;5073753;28;20081;-77
2024/03/09 04:00:12;;;;;;;37.85;17.95;;;102.60;2227.20;;;;;;5072587;28;20442;-75
2024/03/09 04:02:41;;;;;;;40.08;17.05;;;102.60;2227.20;;;;;;5073643;28;20044;-76
2024/03/09 04:05:08;;;;;;;31.42;15.90;;;102.50;2227.20;;;;;;5072690;28;20081;-75
2024/03/09 04:07:34;;;;;;;37.67;18.52;;;102.50;2227.20;;;;;;5072530;28;20029;-75
2024/03/09 04:10:12;;;;;;;35.88;17.05;;;102.60;2227.20;;;;;;5074337;28;20477;-74
2024/03/09 04:12:43;;;;;;;33.72;16.27;;;102.50;2227.20;;;;;;5076934;28;20020;-75
2024/03/09 04:15:09;;;;;;;38.45;16.90;;;102.50;2227.20;;;;;;5076923;28;20020;-76
2024/03/09 04:17:36;;;;;;;36.13;16.55;;;77.70;2227.20;;;;;;5072244;28;20025;-75
2024/03/09 04:20:06;;;;;;;33.50;16.25;;;77.70;2227.20;;;;;;5073379;28;20035;-77
2024/03/09 04:22:33;;;;;;;35.63;18.15;;;77.70;2227.20;;;;;;5073464;28;20385;-74
2024/03/09 04:25:03;;;;;;;36.20;16.35;;;77.70;2227.20;;;;;;5072186;28;20065;-75
2024/03/09 04:27:30;;;;;;;41.35;17.65;;;102.40;2227.20;;;;;;5073456;28;20024;-74
2024/03/09 04:29:56;;;;;;;32.90;17.20;;;102.50;2227.20;;;;;;5072899;28;20048;-75
2024/03/09 04:32:25;;;;;;;38.42;16.77;;;102.40;2227.20;;;;;;5073402;28;20025;-76
2024/03/09 04:34:52;;;;;;;35.17;16.92;;;77.70;2227.20;;;;;;5073485;28;20454;-76
2024/03/09 04:37:25;;;;;;;40.55;16.75;;;77.70;2227.20;;;;;;5071947;28;20032;-74
2024/03/09 04:39:58;;;;;;;37.88;17.13;;;77.70;2227.20;;;;;;5073185;28;20023;-74
2024/03/09 04:42:25;;;;;;;36.55;17.58;;;77.70;2227.20;;;;;;5073497;28;20064;-74
2024/03/09 04:44:51;;;;;;;46.35;16.75;;;102.40;2227.20;;;;;;5058843;28;20028;-74
2024/03/09 04:47:18;;;;;;;32.53;16.25;;;102.40;2227.20;;;;;;5071927;28;20033;-73
2024/03/09 04:49:45;;;;;;;42.30;18.85;;;102.50;2227.20;;;;;;5073257;28;20048;-74
2024/03/09 04:52:14;;;;;;;31.42;16.67;;;102.40;2227.20;;;;;;5072808;28;20086;-74
2024/03/09 04:54:43;;;;;;;42.20;17.17;;;102.40;2227.20;;;;;;5073202;28;20024;-74
2024/03/09 04:57:24;;;;;;;37.40;16.80;;;102.40;2227.20;;;;;;5073168;28;20013;-74
2024/03/09 04:59:50;;;;;;;37.05;17.75;;;102.40;2227.20;;;;;;5072891;28;20029;-74
2024/03/09 05:02:17;;;;;;;32.72;16.33;;;102.40;2227.20;;;;;;5072849;28;20017;-74
2024/03/09 05:04:43;;;;;;;36.55;16.45;;;77.70;2227.20;;;;;;5072999;28;20045;-75
2024/03/09 05:07:09;;;;;;;;;;;77.70;2227.20;;;;;;5073385;28;20016;-74
2024/03/09 05:09:38;;;;;;;40.28;17.27;;;77.70;2227.20;;;;;;5073070;28;20321;-75
2024/03/09 05:12:05;;;;;;;38.90;17.42;;;77.70;2227.20;;;;;;5072851;28;20470;-73
2024/03/09 05:14:31;;;;;;;33.03;15.88;;;77.70;2227.20;;;;;;5072962;28;20025;-76
2024/03/09 05:16:58;;;;;;;39.40;19.30;;;77.70;2227.20;;;;;;5072789;28;20025;-74
2024/03/09 05:19:31;;;;;;;35.00;16.02;;;77.70;2227.20;;;;;;5072842;28;20027;-74
2024/03/09 05:21:58;;;;;;;42.00;18.75;;;102.40;2227.20;;;;;;5072734;28;20099;-74
2024/03/09 05:24:23;;;;;;;39.08;16.83;;;102.40;2227.20;;;;;;5076233;28;20055;-75
2024/03/09 05:26:50;;;;;;;;;;;102.40;2227.20;;;;;;5077234;28;20474;-74
2024/03/09 05:29:15;;;;;;;35.35;15.00;;;102.50;2227.20;;;;;;5075488;28;19958;-75
2024/03/09 05:31:41;;;;;;;;;;;102.50;2227.20;;;;;;5075660;28;20036;-74
2024/03/09 05:34:07;;;;;;;34.08;16.67;;;102.60;2227.20;;;;;;5076754;28;19904;-74
2024/03/09 05:36:34;;;;;;;39.25;17.83;;;102.60;2227.20;;;;;;5075204;28;20070;-73
2024/03/09 05:38:59;;;;;;;37.47;17.00;;;102.70;2227.20;;;;;;5075633;28;20037;-74
2024/03/09 05:41:25;;;;;;;;;;;102.80;2227.20;;;;;;5076905;28;20021;-75
2024/03/09 05:43:51;;;;;;;40.88;17.25;;;103.00;2227.20;;;;;;5076581;28;19916;-74
2024/03/09 05:46:17;;;;;;;;;;;103.00;2227.20;;;;;;5076662;28;20013;-74
2024/03/09 05:48:46;;;;;;;35.40;16.77;;;103.00;2227.20;;;;;;5075152;28;20302;-74
2024/03/09 05:51:14;;;;;;;33.92;16.73;;;103.00;2227.20;;;;;;5076231;28;20044;-75
2024/03/09 05:53:42;;;;;;;36.72;16.75;;;103.10;2227.20;;;;;;5074936;28;20108;-75
2024/03/09 05:56:12;;;;;;;47.92;17.17;;;103.20;2227.20;;;;;;5076205;28;20081;-74
2024/03/09 05:58:40;;;;;;;34.05;15.73;;;103.30;2227.20;;;;;;5076133;28;20024;-74
2024/03/09 06:01:06;;;;;;;35.15;15.93;;;103.30;2227.20;;;;;;5070680;28;20083;-74
2024/03/09 06:03:32;;;;;;;;;;;103.30;2227.20;;;;;;5078792;28;20036;-74
2024/03/09 06:05:58;;;;;;;31.77;17.50;;;103.10;2227.20;;;;;;5083766;28;19904;-73
2024/03/09 06:08:24;;;;;;;;;;;103.30;2227.20;;;;;;5085028;28;20021;-75
2024/03/09 06:10:50;;;;;;;35.72;16.75;;;128.00;2252.80;;;;;;5064789;28;19912;-74
2024/03/09 06:13:17;;;;;;;;;;;128.00;2252.80;;;;;;5068071;28;20389;-74
2024/03/09 06:15:45;;;;;;;37.25;18.20;;;128.00;2252.80;;;;;;5095811;28;19915;-74
2024/03/09 06:18:11;;;;;;;39.67;19.02;;;103.20;2227.20;;;;;;5082248;28;20408;-74
2024/03/09 06:20:41;;;;;;;42.42;16.23;;;128.10;2252.80;;;;;;5082785;28;20506;-74
2024/03/09 06:23:07;;;;;;;33.83;16.80;;;128.20;2252.80;;;;;;5062733;28;20127;-73
2024/03/09 06:25:32;;;;;;;;;;;128.20;2252.80;;;;;;5077805;28;20087;-75
2024/03/09 06:28:03;;;;;;;39.63;17.67;;;128.30;2252.80;;;;;;5068309;28;19904;-74
2024/03/09 06:30:29;;;;;;;45.13;17.05;;;128.30;2252.80;;;;;;5068297;28;20501;-74
2024/03/09 06:32:57;;;;;;;40.30;17.77;;;128.30;2252.80;;;;;;5066554;28;20035;-74
2024/03/09 06:35:27;;;;;;;37.80;16.80;;;128.40;2252.80;;;;;;5076470;28;20462;-74
2024/03/09 06:38:07;;;;;;;39.58;17.85;;;128.60;2252.80;;;;;;5059474;28;20028;-75
2024/03/09 06:40:39;;;;;;;48.45;18.83;;;128.60;2252.80;;;;;;5059634;28;20531;-78
2024/03/09 06:43:09;;;;;;;28.90;15.48;;;128.70;2252.80;;;;;;5069453;28;20397;-78
2024/03/09 06:45:37;;;;;;;37.05;17.77;;;128.80;2252.80;;;;;;5063886;28;20021;-76
2024/03/09 06:48:06;;;;;;;37.78;18.65;;;128.90;2252.80;;;;;;5073968;28;20028;-79
2024/03/09 06:50:34;;;;;;;48.28;19.55;;;128.80;2252.80;;;;;;5066212;28;20037;-77
2024/03/09 06:53:00;;;;;;;34.28;17.40;;;128.90;2252.80;;;;;;5085680;28;20024;-78
2024/03/09 06:55:27;;;;;;;40.70;17.25;;;128.90;2252.80;;;;;;5087395;28;20016;-76
2024/03/09 06:57:53;;;;;;;31.88;16.63;;;128.90;2252.80;;;;;;5078005;28;20099;-74
2024/03/09 07:00:20;;;;;;;36.30;18.23;;;128.90;2252.80;;;;;;5070243;28;20035;-75
2024/03/09 07:02:49;;;;;;;35.42;18.02;;;153.60;2252.80;;;;;;5072968;28;20085;-75
2024/03/09 07:05:15;;;;;;;37.95;18.17;;;153.80;2252.80;;;;;;5061414;28;20478;-76
2024/03/09 07:07:41;;;;;;;;;;;153.70;2252.80;;;;;;5081948;28;20504;-75
2024/03/09 07:10:09;;;;;;;36.42;19.05;;;153.90;2252.80;;;;;;5079923;28;19909;-77
2024/03/09 07:12:45;;;;;;;54.55;28.27;;;153.90;2252.80;;;;;;5066561;28;20074;-75
2024/03/09 07:15:16;;;;;;;38.80;23.42;;;154.00;2252.80;;;;;;5069710;28;20554;-76
2024/03/09 07:17:48;;;;;;;33.72;18.17;;;154.00;2252.80;;;;;;5071765;28;20029;-76
2024/03/09 07:20:16;;;;;;;35.92;16.65;;;154.10;2252.80;;;;;;5062807;28;20025;-77
2024/03/09 07:22:50;;;;;;;31.00;16.25;;;154.20;2252.80;;;;;;5075533;28;20121;-77
2024/03/09 07:25:24;;;;;;;32.63;16.60;;;154.20;2252.80;;;;;;5070743;28;20016;-77
2024/03/09 07:27:51;;;;;;;34.22;18.15;;;154.30;2252.80;;;;;;5074468;28;20039;-78
2024/03/09 07:30:18;;;;;;;35.25;17.38;;;154.40;2252.80;;;;;;5072937;28;20141;-75
2024/03/09 07:32:45;;;;;;;38.58;17.02;;;154.40;2252.80;;;;;;5071610;28;20029;-76
2024/03/09 07:35:14;;;;;;;32.45;16.85;;;154.30;2252.80;;;;;;5079043;28;20025;-76
2024/03/09 07:37:45;;;;;;;37.85;17.35;;;154.50;2252.80;;;;;;5068053;28;20117;-75
2024/03/09 07:40:13;;;;;;;29.77;17.75;;;154.50;2252.80;;;;;;5063564;28;20028;-75
2024/03/09 07:42:39;;;;;;;35.28;16.38;;;179.30;2252.80;;;;;;5068339;28;20035;-76
2024/03/09 07:45:07;;;;;;;;;;;179.40;2252.80;;;;;;5082318;28;20108;-76
2024/03/09 07:47:36;;;;;;;36.92;15.88;;;179.40;2252.80;;;;;;5068640;28;19940;-78
2024/03/09 07:50:03;;;;;;;32.72;16.50;;;179.40;2252.80;;;;;;5091420;28;20062;-75
2024/03/09 07:52:29;;;;;;;35.78;18.48;;;179.40;2252.80;;;;;;5075064;28;20093;-76
2024/03/09 07:54:56;;;;;;;;;;;179.50;2252.80;;;;;;5063120;28;20389;-75
2024/03/09 07:57:22;;;;;;;23.45;12.90;;;179.60;2252.80;;;;;;5071808;28;19912;-76
2024/03/09 07:59:47;;;;;;;;;;;204.80;2252.80;;;;;;5090009;28;20048;-75
2024/03/09 08:02:13;;;;;;;30.42;14.68;;;;;;;;;;5088440;28;20019;-74
2024/03/09 08:04:40;;;;;;;31.75;14.30;;;205.20;2252.80;;;;;;5065822;28;20065;-75
2024/03/09 08:07:05;;;;;;;36.58;17.65;;;205.40;2252.80;;;;;;5078269;28;20111;-76
2024/03/09 08:09:31;;;;;;;;;;;205.70;2252.80;;;;;;5072567;28;20629;-75
2024/03/09 08:11:57;;;;;;;29.00;16.40;;;205.40;2252.80;;;;;;5065398;28;19970;-77
2024/03/09 08:14:27;;;;;;;30.83;13.93;;;205.60;2252.80;;;;;;5067222;28;20073;-74
2024/03/09 08:16:53;;;;;;;26.40;14.23;;;230.40;2252.80;;;;;;5063203;28;20024;-76
2024/03/09 08:19:20;;;;;;;29.50;14.40;;;230.90;2252.80;;;;;;5062711;28;20035;-76
2024/03/09 08:21:47;;;;;;;27.48;15.32;;;230.80;2252.80;;;;;;5065047;28;20394;-76
2024/03/09 08:24:14;;;;;;;27.90;14.05;;;230.50;2252.80;;;;;;5075902;28;20045;-76
2024/03/09 08:26:40;;;;;;;28.27;13.50;;;230.40;2252.80;;;;;;5078466;28;20027;-76
2024/03/09 08:29:05;;;;;;;25.83;14.02;;;230.40;2252.80;;;;;;5079840;28;20039;-75
2024/03/09 08:31:31;;;;;;;17.67;10.02;;;230.60;2252.80;;;;;;5073055;28;20048;-76
2024/03/09 08:33:57;;;;;;;22.02;12.70;;;205.60;2252.80;;;;;;5067230;28;20040;-79
2024/03/09 08:36:26;;;;;;;23.05;12.68;;;230.40;2252.80;;;;;;5077152;28;20045;-77
2024/03/09 08:38:57;;;;;;;26.05;12.57;;;230.60;2252.80;;;;;;5078901;28;20036;-77
2024/03/09 08:41:23;;;;;;;28.25;13.25;;;230.80;2252.80;;;;;;5070250;28;20031;-77
2024/03/09 08:43:49;;;;;;;19.40;10.60;;;230.90;2252.80;;;;;;5060041;28;20128;-73
2024/03/09 08:46:14;;;;;;;;;;;231.10;2252.80;;;;;;5078845;28;20069;-74
2024/03/09 08:48:40;;;;;;;22.92;12.30;;;256.10;2252.80;;;;;;5070362;28;19917;-74
2024/03/09 08:51:07;;;;;;;;;;;256.60;2252.80;;;;;;5078524;28;20137;-75
2024/03/09 08:53:35;;;;;;;;;;;256.50;2252.80;;;;;;5067727;28;19911;-73
2024/03/09 08:56:02;;;;;;;21.35;12.13;;;256.90;2252.80;;;;;;5069545;28;19908;-76
2024/03/09 08:58:27;;;;;;;22.45;10.80;;;281.80;2278.40;;;;;;5075531;28;20043;-75
2024/03/09 09:00:53;;;;;;;22.25;11.80;;;281.70;2278.40;;;;;;5069133;28;20028;-75
2024/03/09 09:03:22;;;;;;;21.00;11.05;;;281.80;2278.40;;;;;;5069280;28;20052;-76
2024/03/09 09:05:48;;;;;;;20.98;11.15;;;282.00;2278.40;;;;;;5071068;28;20028;-74
2024/03/09 09:08:24;;;;;;;22.45;11.45;;;281.70;2278.40;;;;;;5077193;28;20024;-74
2024/03/09 09:10:54;;;;;;;24.02;11.32;;;281.80;2278.40;;;;;;5060274;28;20047;-73
2024/03/09 09:13:23;;;;;;;23.83;12.82;;;282.00;2278.40;;;;;;5055794;28;20029;-75
2024/03/09 09:15:49;;;;;;;21.38;10.93;;;282.30;2278.40;;;;;;5081384;28;20027;-75
2024/03/09 09:18:15;;;;;;;19.25;10.70;;;282.30;2278.40;;;;;;5071070;28;20151;-73
2024/03/09 09:20:42;;;;;;;23.48;10.77;;;282.30;2278.40;;;;;;5072398;28;20033;-74
2024/03/09 09:23:10;;;;;;;22.40;11.60;;;307.20;2304.00;;;;;;5070474;28;20481;-74
2024/03/09 09:25:38;;;;;;;18.08;9.68;;;307.30;2304.00;;;;;;5064501;28;20473;-74
2024/03/09 09:28:05;;;;;;;24.10;10.20;;;307.30;2304.00;;;;;;5066029;28;20087;-74
2024/03/09 09:30:32;;;;;;;21.38;12.05;;;307.60;2304.00;;;;;;5071831;28;20044;-73
2024/03/09 09:32:58;;;;;;;18.83;11.40;;;307.80;2304.00;;;;;;5068602;28;20516;-74
2024/03/09 09:35:25;;;;;;;19.38;11.57;;;307.80;2304.00;;;;;;5072687;28;20082;-74
2024/03/09 09:37:52;;;;;;;20.00;11.32;;;308.00;2304.00;;;;;;5072634;28;20099;-74
2024/03/09 09:40:19;;;;;;;16.00;9.68;;;332.90;2329.60;;;;;;5073494;28;20020;-75
2024/03/09 09:42:45;;;;;;;17.75;11.77;;;308.10;2304.00;;;;;;5070772;28;20535;-74
2024/03/09 09:45:21;;;;;;;20.00;11.32;;;332.90;2329.60;;;;;;5082064;28;20111;-73
2024/03/09 09:47:48;;;;;;;17.58;11.48;;;332.90;2329.60;;;;;;5073895;28;20028;-75
2024/03/09 09:50:18;;;;;;;17.25;9.52;;;332.90;2329.60;;;;;;5078072;28;20097;-75
2024/03/09 09:52:49;;;;;;;17.52;9.95;;;308.10;2304.00;;;;;;5067028;28;20021;-74
2024/03/09 09:55:19;;;;;;;19.65;11.70;;;332.80;2329.60;;;;;;5073731;28;20048;-76
2024/03/09 09:57:48;;;;;;;18.10;10.50;;;333.10;2329.60;;;;;;5072180;28;20028;-75
2024/03/09 10:00:16;;;;;;;17.65;10.18;;;;;;;;;;5067709;28;20033;-74
2024/03/09 10:02:42;;;;;;;16.25;10.07;;;358.60;2329.60;;;;;;5072246;28;20516;-74
2024/03/09 10:05:15;;;;;;;16.92;10.35;;;358.80;2329.60;;;;;;5064005;28;20025;-75
2024/03/09 10:08:01;;;;;;;16.92;10.90;;;358.70;2329.60;;;;;;5072796;28;20024;-75
2024/03/09 10:10:31;;;;;;;16.63;9.88;;;359.10;2329.60;;;;;;5066829;28;20070;-74
2024/03/09 10:13:11;;;;;;;16.45;9.65;;;359.00;2329.60;;;;;;5071160;28;20107;-73
2024/03/09 10:15:40;;;;;;;19.42;10.77;;;358.80;2329.60;;;;;;5086595;28;20529;-78
2024/03/09 10:18:07;;;;;;;13.40;9.48;;;358.80;2329.60;;;;;;5068329;28;20029;-78
2024/03/09 10:20:35;;;;;;;16.73;10.52;;;358.90;2329.60;;;;;;5071794;28;20016;-76
2024/03/09 10:23:13;;;;;;;16.23;9.52;;;359.20;2329.60;;;;;;5079359;28;20037;-77
2024/03/09 10:25:40;;;;;;;18.42;10.23;;;359.30;2329.60;;;;;;5073932;28;20029;-77
2024/03/09 10:28:11;;;;;;;18.58;8.98;;;359.30;2329.60;;;;;;5074160;28;20063;-75
2024/03/09 10:30:37;;;;;;;18.50;11.20;;;358.90;2329.60;;;;;;5064953;28;20046;-75
2024/03/09 10:33:16;;;;;;;17.27;11.18;;;359.00;2329.60;;;;;;5074957;28;20117;-75
2024/03/09 10:35:46;;;;;;;15.43;9.60;;;359.20;2329.60;;;;;;5072999;28;20025;-75
2024/03/09 10:38:15;;;;;;;15.65;10.77;;;359.20;2329.60;;;;;;5062914;28;20367;-75
2024/03/09 10:40:41;;;;;;;17.83;10.60;;;384.30;2329.60;;;;;;5071273;28;20113;-75
2024/03/09 10:43:14;;;;;;;20.25;11.98;;;384.20;2329.60;;;;;;5072669;28;20105;-75
2024/03/09 10:45:41;;;;;;;18.42;11.50;;;384.40;2329.60;;;;;;5080384;28;20113;-75
2024/03/09 10:48:09;;;;;;;15.95;10.32;;;384.60;2329.60;;;;;;5079239;28;20389;-76
2024/03/09 10:51:07;;;;;;;15.90;10.20;;;384.20;2329.60;;;;;;5077020;28;20029;-76
2024/03/09 10:53:46;;;;;;;17.67;10.93;;;384.10;2329.60;;;;;;4999843;28;20033;-76
2024/03/09 10:56:23;;;;;;;22.55;10.73;;;384.40;2329.60;;;;;;5001357;28;20029;-77
2024/03/09 10:58:51;;;;;;;14.45;9.27;;;384.40;2329.60;;;;;;5012480;28;20038;-77
2024/03/09 11:01:22;;;;;;;19.90;10.98;;;384.60;2329.60;;;;;;4992516;28;20044;-78
2024/03/09 11:03:49;;;;;;;17.85;11.52;;;384.60;2329.60;;;;;;5017889;28;20037;-77
2024/03/09 11:06:18;;;;;;;19.83;11.93;;;384.90;2329.60;;;;;;5014904;28;20105;-77
2024/03/09 11:08:53;;;;;;;18.77;10.90;;;409.60;2355.20;;;;;;5024097;28;20037;-75
2024/03/09 11:11:21;;;;;;;20.38;11.77;;;384.70;2329.60;;;;;;5017802;28;20053;-75
2024/03/09 11:13:48;;;;;;;18.92;11.55;;;384.90;2329.60;;;;;;5033286;28;20033;-76
2024/03/09 11:16:17;;;;;;;17.38;11.88;;;409.70;2355.20;;;;;;5033760;28;20037;-77
2024/03/09 11:18:45;;;;;;;22.13;12.77;;;384.90;2329.60;;;;;;4996818;28;20061;-77
2024/03/09 11:21:34;;;;;;;16.10;11.45;;;384.90;2329.60;;;;;;4990318;28;20022;-77
2024/03/09 11:24:11;;;;;;;17.80;11.55;;;409.80;2355.20;;;;;;5017124;28;20168;-75
2024/03/09 11:26:53;;;;;;;20.17;12.98;;;410.20;2252.80;;;;;;5015581;28;20072;-76
2024/03/09 11:29:27;;;;;;;20.73;11.55;;;410.30;2355.20;;;;;;5021524;28;20131;-75
2024/03/09 11:32:10;;;;;;;19.58;12.30;;;410.00;2278.40;;;;;;5074208;28;20098;-76
2024/03/09 11:34:38;;;;;;;20.17;10.82;;;410.10;2304.00;;;;;;5064948;28;20392;-76
2024/03/09 11:37:08;;;;;;;21.38;11.80;;;409.80;2355.20;;;;;;5064550;28;20020;-77
2024/03/09 11:39:36;;;;;;;18.33;11.73;;;409.90;2355.20;;;;;;5063678;28;20029;-76
2024/03/09 11:42:11;;;;;;;18.20;10.68;;;409.90;2355.20;;;;;;5069898;28;20083;-77
2024/03/09 11:44:38;;;;;;;19.60;11.90;;;410.10;2227.20;;;;;;5066235;28;20375;-74
2024/03/09 11:47:05;;;;;;;21.23;11.15;;;410.00;2355.20;;;;;;5069692;28;20465;-76
2024/03/09 11:49:34;;;;;;;21.08;13.57;;;410.20;2329.60;;;;;;5063798;28;20048;-76
2024/03/09 11:52:11;;;;;;;19.10;11.52;;;410.30;2252.80;;;;;;5068135;28;20035;-74
2024/03/09 11:54:38;;;;;;;19.88;11.07;;;410.30;2201.60;;;;;;5071884;28;20025;-78
2024/03/09 11:57:04;;;;;;;18.58;12.27;;;409.90;2201.60;;;;;;5071752;28;20497;-76
2024/03/09 11:59:30;;;;;;;18.77;11.30;;;410.10;2355.20;;;;;;5079983;28;20021;-76
2024/03/09 12:02:02;;;;;;;19.67;11.15;;;410.30;2329.60;;;;;;5070352;28;20029;-75
2024/03/09 12:04:29;;;;;;;20.48;11.00;;;435.20;2329.60;;;;;;5070484;28;20056;-77
2024/03/09 12:06:55;;;;;;;17.88;11.25;;;435.30;2201.60;;;;;;5060947;28;20029;-77
2024/03/09 12:09:21;;;;;;;17.55;11.23;;;410.50;2150.40;;;;;;5092412;28;20111;-77
2024/03/09 12:11:47;;;;;;;18.35;11.18;;;;;;;;;;5057063;28;20159;-76
2024/03/09 12:14:15;;;;;;;16.90;10.27;;;435.20;2124.80;;;;;;5075865;28;20026;-76
2024/03/09 12:16:42;;;;;;;25.80;11.32;;;410.40;2073.60;;;;;;5072734;28;20037;-77
2024/03/09 12:19:11;;;;;;;19.45;12.05;;;410.50;2099.20;;;;;;5079301;28;20029;-77